Landes Station, West Virginia
Current Conditions -  °F | °C
As of 7:15 PM on Thursday 18 Dec 2014 (Local Time) from KW99 Reporting Station
Overcast Overcast  
Wind Chill: 27°   Ceiling: 11000
Heat Index: 32°   Visibility: 10mi
Dew Point: 21°   Wind: 6mph
Humidity: 63%   Direction: 120°ESE
Pressure: 30.12"   Gusts: NA
Location:  38.9337°N, 79.1435°W
Report Text: KW99 190015Z AUTO 12005KT 10SM OVC110 00/M06 A3012 RMK AO2 T00011061
Loading
Personal Weather Stations






























Interactive Weather Map New forecast layout! Learn more

10-Day Weather Forecast

Advertisements
Track Severe Weather on mobile